Rapid City, SD (57702)

8:50 AM MST on December 05, 2016 (GMT -0700)
| | Change Station
Active Advisory: Wind Advisory

Elev -9999 ft 0.00 °N, 0.00 °E | Updated

Partly Cloudy
Partly Cloudy
32 °F
Feels Like 19 °F
N
23
Wind Variable Wind from NW
Gusts 34 mph

Today
High -- | Low -- °F
--% Chance of Precip.
Yesterday
High -- | Low -- °F
Precip. -- in
Pressure 29.55 in
Visibility 10.0 miles
Clouds Scattered Clouds 900 ft
Mostly Cloudy 1900 ft
Mostly Cloudy 2900 ft
Overcast 4000 ft
Windchill 19 °F
Dew Point 19 °F
Humidity 58%
Rainfall --
Snow Depth Not available.
7:12 AM 4:14 PM
Waxing Crescent, 32% visible
SPECI KRCA 051543Z 33029G35KT 10SM -SN SCT009 BKN019 BKN029 OVC040 00/M03 A2955 RMK AO2A CIG 019V038 $
Pressure 29.55 in
Visibility 10.0 miles
Clouds Scattered Clouds 900 ft
Mostly Cloudy 1900 ft
Mostly Cloudy 2900 ft
Overcast 4000 ft
Windchill 19 °F
Dew Point 19 °F
Humidity 58%
Rainfall --
Snow Depth Not available.
7:12 AM 4:14 PM
Waxing Crescent, 32% visible
SPECI KRCA 051543Z 33029G35KT 10SM -SN SCT009 BKN019 BKN029 OVC040 00/M03 A2955 RMK AO2A CIG 019V038 $

10-Day Weather Forecast

Almanac

Astronomy

Dec. 05, 2016 Rise Set
Actual Time
Civil Twilight
Nautical Twilight
Astronomical Twilight
Moon
Length of Visible Light
Length of Day
Tomorrow will be .
, % of the Moon is Illuminated

Today's Extremes

State Highs State Lows

Community

WunderPhotos

Upload Photos

1,955,794 photos uploaded!

WunderBlog® & News

Nearby

Air Quality

  Air Quality AQ Index Pollutant
Not available.

Snow Depth

Station Depth Elevation

Earthquake Activity

City Distance Mag. Time & Date
Minimum magnitude displayed is 2.5.

Coastal Water Temperatures

Place Temperature

Stations

Nearby Weather Stations

Station Location Temp. Windchill Dew Point Humidity Wind Precip. Elev Updated Type
                   

Watches & Warnings

Wind Advisory
Issued: 3:13 AM MST Dec. 5, 2016 – National Weather Service

... Wind Advisory in effect from 8 am this morning to 9 PM MST
this evening...

The National Weather Service in Rapid City has issued a Wind
Advisory... which is in effect from 8 am this morning to 9 PM MST
this evening.

* Timing... this morning through this evening.

* Winds... northwest 25 to 35 with gusts to 45 mph.

* Impacts... sudden wind gusts can cause drivers to lose control,
especially in lightweight or high profile vehicles. Strong
winds can cause blowing dust, reduced visibility, and flying
debris.

Precautionary/preparedness actions...

A Wind Advisory means 30 mph winds... or gusts over 45 mph... are
expected or occurring.